Pedhoulas Trader — C4JM2 — position and weather

sailwx.info

Track history (hours):
 
Tides and Currents Weather Stations Pressure Air Temp Water Temp Dewpoint Dewpoint Depression Visibility Wind Speed Wind Dir Waves Ship Positions

Pedhoulas Trader

Last reported at 2017-Apr-23 10:09 UTC. Time now 2017-Apr-24 05:38 UTC.
Position N 38°59' E 117°45'.

Length 229 m; draft 13.5 m.

Type: Cargo ship. MMSI: 210073000.

Date/timePositionNaut miles runAvg speedWind from/ knotsBaromVisibWave heightAir tempDewpointWater temp
2017-Apr-23 10:09N 38°59' E 117°45'0 0.0
2017-Apr-23 10:00N 38°59' E 117°45'  
2017-Apr-20 02:27N 38°59' E 117°45'  
2017-Apr-15 19:51N 38°54' E 118°04'34 1.7
2017-Apr-15 00:36N 38°49' E 118°47'1 9.4
2017-Apr-15 00:30N 38°49' E 118°48'6010.5
2017-Apr-14 18:44N 38°43' E 120°05'4711.3
2017-Apr-14 14:34N 38°33' E 121°04'110.1
2017-Apr-14 14:30N 38°32' E 121°05'1410.4
2017-Apr-14 13:12N 38°27' E 121°20'2310.8
2017-Apr-14 11:06N 38°18' E 121°47'111.4
2017-Apr-14 11:00N 38°17' E 121°48'611.2
2017-Apr-14 10:30N 38°15' E 121°55'511.1
2017-Apr-14 10:01N 38°13' E 122°01'611.4
2017-Apr-14 09:27N 38°09' E 122°07'511.4
2017-Apr-14 09:00N 38°06' E 122°12'511.1
2017-Apr-14 08:31N 38°02' E 122°18'510.4
2017-Apr-14 08:01N 37°59' E 122°23'1110.1
2017-Apr-14 06:56N 37°53' E 122°34'  
Track history (hours):
 
Tides and Currents Weather Stations Pressure Air Temp Water Temp Dewpoint Dewpoint Depression Visibility Wind Speed Wind Dir Waves Ship Positions

Pedhoulas Trader

Last reported at 2017-Apr-23 10:09 UTC. Time now 2017-Apr-24 05:38 UTC.
Position N 38°59' E 117°45'.

Length 229 m; draft 13.5 m.

Type: Cargo ship. MMSI: 210073000.

Date/timePositionNaut miles runAvg speedWind from/ knotsBaromVisibWave heightAir tempDewpointWater temp
2017-Apr-23 10:09N 38°59' E 117°45'0 0.0
2017-Apr-23 10:00N 38°59' E 117°45'  
2017-Apr-20 02:27N 38°59' E 117°45'  
2017-Apr-15 19:51N 38°54' E 118°04'34 1.7
2017-Apr-15 00:36N 38°49' E 118°47'1 9.4
2017-Apr-15 00:30N 38°49' E 118°48'6010.5
2017-Apr-14 18:44N 38°43' E 120°05'4711.3
2017-Apr-14 14:34N 38°33' E 121°04'110.1
2017-Apr-14 14:30N 38°32' E 121°05'1410.4
2017-Apr-14 13:12N 38°27' E 121°20'2310.8
2017-Apr-14 11:06N 38°18' E 121°47'111.4
2017-Apr-14 11:00N 38°17' E 121°48'611.2
2017-Apr-14 10:30N 38°15' E 121°55'511.1
2017-Apr-14 10:01N 38°13' E 122°01'611.4
2017-Apr-14 09:27N 38°09' E 122°07'511.4
2017-Apr-14 09:00N 38°06' E 122°12'511.1
2017-Apr-14 08:31N 38°02' E 122°18'510.4
2017-Apr-14 08:01N 37°59' E 122°23'1110.1
2017-Apr-14 06:56N 37°53' E 122°34'  

Dump ship's entire track history